createdAt,value
2024-03-06T00:03:26.875Z,8.19
2024-03-06T00:08:30.028Z,8.77
2024-03-06T00:13:32.887Z,8.85
2024-03-06T00:18:37.009Z,8.80
2024-03-06T00:23:40.204Z,8.73
2024-03-06T00:28:42.924Z,8.81
2024-03-06T00:33:47.031Z,8.61
2024-03-06T00:38:49.854Z,8.48
2024-03-06T00:43:52.766Z,8.59
2024-03-06T00:48:56.799Z,8.40
2024-03-06T00:53:59.814Z,8.26
2024-03-06T00:59:02.509Z,8.19
2024-03-06T01:04:07.259Z,8.57
2024-03-06T01:09:10.355Z,8.37
2024-03-06T01:14:18.091Z,8.49
2024-03-06T01:19:22.810Z,8.34
2024-03-06T01:24:25.885Z,8.38
2024-03-06T01:29:28.531Z,8.42
2024-03-06T01:34:32.640Z,8.15
2024-03-06T01:39:37.789Z,8.18
2024-03-06T01:44:40.542Z,8.27
2024-03-06T01:49:45.649Z,7.98
2024-03-06T01:54:52.217Z,8.44
2024-03-06T01:59:55.737Z,8.38
2024-03-06T02:10:18.110Z,8.27
2024-03-06T02:15:21.228Z,8.47
2024-03-06T02:20:26.267Z,8.45
2024-03-06T02:25:29.452Z,8.38
2024-03-06T02:30:37.834Z,8.33
2024-03-06T02:35:46.538Z,8.47
2024-03-06T02:40:51.217Z,8.39
2024-03-06T02:45:54.308Z,8.37
2024-03-06T02:50:58.974Z,7.82
2024-03-06T02:56:01.692Z,7.98
2024-03-06T03:01:04.521Z,8.13
2024-03-06T03:06:08.948Z,8.08
2024-03-06T03:11:12.761Z,8.22
2024-03-06T03:16:19.723Z,7.82
2024-03-06T03:21:23.955Z,8.08
2024-03-06T03:26:26.596Z,7.49
2024-03-06T03:31:29.284Z,7.95
2024-03-06T03:36:34.206Z,7.90
2024-03-06T03:41:36.930Z,7.86
2024-03-06T03:46:40.009Z,7.67
2024-03-06T03:51:44.261Z,7.59
2024-03-06T03:56:47.121Z,7.56
2024-03-06T04:01:49.864Z,7.78
2024-03-06T04:06:56.034Z,7.74
2024-03-06T04:11:59.621Z,7.66
2024-03-06T04:17:03.818Z,7.91
2024-03-06T04:22:10.452Z,6.97
2024-03-06T04:27:13.071Z,7.67
2024-03-06T04:32:15.767Z,7.80
2024-03-06T04:37:20.247Z,7.81
2024-03-06T04:42:22.893Z,7.68
2024-03-06T04:47:29.355Z,7.67
2024-03-06T04:52:34.735Z,7.51
2024-03-06T04:57:41.700Z,7.49
2024-03-06T06:01:39.905Z,6.90
2024-03-06T06:06:45.459Z,6.92
2024-03-06T06:11:51.614Z,6.83
2024-03-06T06:16:54.469Z,7.34
2024-03-06T06:21:57.355Z,6.82
2024-03-06T06:27:01.377Z,7.19
2024-03-06T06:32:04.056Z,6.97
2024-03-06T06:37:06.819Z,7.11
2024-03-06T06:42:12.379Z,6.55
2024-03-06T06:47:15.429Z,7.15
2024-03-06T06:52:21.893Z,6.85
2024-03-06T06:57:26.070Z,6.98
2024-03-06T07:02:29.067Z,7.16
2024-03-06T07:07:31.869Z,7.11
2024-03-06T07:12:37.099Z,6.85
2024-03-06T07:17:39.859Z,7.31
2024-03-06T07:22:45.647Z,7.42
2024-03-06T07:27:49.691Z,7.64
2024-03-06T07:32:54.853Z,7.64
2024-03-06T07:37:58.012Z,7.85
2024-03-06T07:43:02.081Z,7.95
2024-03-06T07:48:05.913Z,7.80
2024-03-06T07:53:08.636Z,7.73
2024-03-06T07:58:14.090Z,7.84
2024-03-06T08:03:17.072Z,8.19
2024-03-06T08:08:19.925Z,8.33
2024-03-06T08:13:25.586Z,8.24
2024-03-06T08:18:28.375Z,7.62
2024-03-06T08:23:31.590Z,8.46
2024-03-06T08:28:35.735Z,8.64
2024-03-06T08:33:38.754Z,8.74
2024-03-06T08:38:42.897Z,8.85
2024-03-06T08:43:47.002Z,8.78
2024-03-06T08:48:52.541Z,8.93
2024-03-06T08:53:59.521Z,9.19
2024-03-06T08:59:04.693Z,9.27
2024-03-06T09:04:08.416Z,9.56
2024-03-06T09:09:14.566Z,9.52
2024-03-06T09:14:18.988Z,9.56
2024-03-06T09:19:21.718Z,9.42
2024-03-06T09:24:26.059Z,9.46
2024-03-06T09:29:30.261Z,9.92
2024-03-06T09:34:32.940Z,9.77
2024-03-06T09:39:37.380Z,10.04
2024-03-06T09:44:42.773Z,10.15
2024-03-06T09:49:45.913Z,10.24
2024-03-06T09:54:49.641Z,10.43
2024-03-06T09:59:53.891Z,10.26
2024-03-06T10:04:56.631Z,10.43
2024-03-06T10:16:57.126Z,10.59
2024-03-06T10:22:00.008Z,10.64
2024-03-06T10:27:03.169Z,10.76
2024-03-06T10:32:08.978Z,11.03
2024-03-06T10:37:12.039Z,10.96
2024-03-06T10:42:15.505Z,11.16
2024-03-06T10:47:22.271Z,11.32
2024-03-06T10:52:25.514Z,11.40
2024-03-06T10:57:29.617Z,11.59
2024-03-06T11:02:34.380Z,11.75
2024-03-06T11:07:38.057Z,11.51
2024-03-06T11:12:41.269Z,12.03
2024-03-06T11:17:46.052Z,11.91
2024-03-06T11:23:12.665Z,11.30
2024-03-06T11:28:19.450Z,11.98
2024-03-06T11:33:24.154Z,10.92
2024-03-06T11:38:27.620Z,12.15
2024-03-06T11:43:31.348Z,12.13
2024-03-06T11:48:35.592Z,12.18
2024-03-06T11:53:42.645Z,12.17
2024-03-06T11:58:48.669Z,12.16
2024-03-06T12:03:54.138Z,12.13
2024-03-06T12:08:57.466Z,12.17
2024-03-06T12:14:00.198Z,12.10
2024-03-06T12:19:04.340Z,12.26
2024-03-06T12:24:08.407Z,12.33
2024-03-06T12:29:12.842Z,12.37
2024-03-06T12:34:18.138Z,12.18
2024-03-06T12:39:24.153Z,12.58
2024-03-06T12:44:27.809Z,12.58
2024-03-06T12:49:31.966Z,12.30
2024-03-06T12:54:39.628Z,12.38
2024-03-06T12:59:44.061Z,12.61
2024-03-06T13:04:48.199Z,12.90
2024-03-06T13:09:51.713Z,13.41
2024-03-06T13:14:55.047Z,13.57
2024-03-06T13:19:59.317Z,13.49
2024-03-06T13:25:05.873Z,13.62
2024-03-06T13:30:10.010Z,14.07
2024-03-06T13:35:14.550Z,14.46
2024-03-06T13:40:17.765Z,14.62
2024-03-06T13:45:23.286Z,15.01
2024-03-06T13:50:29.445Z,15.14
2024-03-06T13:55:34.504Z,15.09
2024-03-06T14:00:37.351Z,15.43
2024-03-06T14:05:42.108Z,15.49
2024-03-06T14:10:46.962Z,14.87
2024-03-06T14:15:50.476Z,14.81
2024-03-06T14:20:54.667Z,14.21
2024-03-06T14:25:57.462Z,14.22
2024-03-06T14:31:01.520Z,14.40
2024-03-06T14:36:09.040Z,14.42
2024-03-06T14:41:11.954Z,13.78
2024-03-06T14:46:16.953Z,14.23
2024-03-06T14:51:21.372Z,14.14
2024-03-06T14:56:24.205Z,14.20
2024-03-06T15:01:29.771Z,14.42
2024-03-06T15:06:34.403Z,14.63
2024-03-06T15:11:37.281Z,13.39
2024-03-06T15:16:41.009Z,14.79
2024-03-06T15:21:46.380Z,14.80
2024-03-06T15:26:49.276Z,14.87
2024-03-06T15:31:52.129Z,14.68
2024-03-06T15:36:57.821Z,14.92
2024-03-06T15:42:04.350Z,14.89
2024-03-06T15:47:10.864Z,14.95
2024-03-06T15:52:16.291Z,14.60
2024-03-06T15:57:19.699Z,14.72
2024-03-06T16:02:24.858Z,14.58
2024-03-06T16:07:29.233Z,14.44
2024-03-06T16:12:32.122Z,14.50
2024-03-06T16:17:35.777Z,14.11
2024-03-06T16:22:40.077Z,13.98
2024-03-06T16:27:42.726Z,14.20
2024-03-06T16:32:45.507Z,13.99
2024-03-06T16:37:51.800Z,13.87
2024-03-06T16:42:54.995Z,13.79
2024-03-06T16:48:01.014Z,13.72
2024-03-06T16:53:09.209Z,13.31
2024-03-06T16:58:12.958Z,13.28
2024-03-06T17:03:15.821Z,13.22
2024-03-06T17:08:19.999Z,13.25
2024-03-06T17:13:22.956Z,13.15
2024-03-06T17:18:25.736Z,13.08
2024-03-06T17:23:30.329Z,13.07
2024-03-06T17:28:33.087Z,12.87
2024-03-06T17:33:39.215Z,12.73
2024-03-06T17:38:47.621Z,12.65
2024-03-06T17:43:53.266Z,12.78
2024-03-06T17:48:55.988Z,12.65
2024-03-06T17:54:00.193Z,12.34
2024-03-06T17:59:03.366Z,12.45
2024-03-06T18:04:06.718Z,12.47
2024-03-06T18:09:16.122Z,12.42
2024-03-06T18:14:23.387Z,12.35
2024-03-06T18:19:27.011Z,12.32
2024-03-06T18:24:31.208Z,12.17
2024-03-06T18:29:35.056Z,12.05
2024-03-06T18:34:38.919Z,12.00
2024-03-06T18:39:45.356Z,11.87
2024-03-06T18:44:48.215Z,12.00
2024-03-06T18:49:51.475Z,12.02
2024-03-06T18:54:55.477Z,11.64
2024-03-06T18:59:58.211Z,11.67
2024-03-06T19:05:01.019Z,11.77
2024-03-06T19:10:06.642Z,11.69
2024-03-06T19:15:11.105Z,11.50
2024-03-06T19:20:14.865Z,11.59
2024-03-06T19:25:20.834Z,11.51
2024-03-06T19:30:23.725Z,11.46
2024-03-06T19:35:27.063Z,11.15
2024-03-06T19:40:31.687Z,10.94
2024-03-06T19:45:34.351Z,11.26
2024-03-06T19:50:37.223Z,11.22
2024-03-06T19:55:41.299Z,11.03
2024-03-06T20:00:45.617Z,10.86
2024-03-06T20:05:49.440Z,10.79
2024-03-06T20:10:53.918Z,11.00
2024-03-06T20:15:57.377Z,10.87
2024-03-06T20:21:01.267Z,10.81
2024-03-06T20:26:09.070Z,10.98
2024-03-06T20:31:18.885Z,10.75
2024-03-06T20:36:21.890Z,10.73
2024-03-06T20:41:28.607Z,10.68
2024-03-06T20:46:32.544Z,10.61
2024-03-06T20:51:36.407Z,10.55
2024-03-06T20:56:40.894Z,10.80
2024-03-06T21:01:46.018Z,10.71
2024-03-06T21:06:48.954Z,10.68
2024-03-06T21:11:55.931Z,10.65
2024-03-06T21:17:01.471Z,10.71
2024-03-06T21:22:05.709Z,10.49
2024-03-06T21:27:09.746Z,10.51
2024-03-06T21:32:12.440Z,10.57
2024-03-06T21:37:15.302Z,10.50
2024-03-06T21:42:21.685Z,10.07
2024-03-06T21:47:24.485Z,10.46
2024-03-06T21:52:27.532Z,10.53
2024-03-06T21:57:31.596Z,10.31
2024-03-06T22:02:34.249Z,10.29
2024-03-06T22:07:38.140Z,10.35
2024-03-06T22:12:42.202Z,9.92
2024-03-06T22:17:46.990Z,10.11
2024-03-06T22:22:52.301Z,10.14
2024-03-06T22:27:56.416Z,10.21
2024-03-06T22:32:59.791Z,10.17
2024-03-06T22:38:02.742Z,10.08
2024-03-06T22:43:07.828Z,10.19
2024-03-06T22:48:10.853Z,9.90
2024-03-06T22:53:14.735Z,9.82
2024-03-06T22:58:23.579Z,9.15
2024-03-06T23:03:26.341Z,9.74
2024-03-06T23:08:31.068Z,9.75
2024-03-06T23:13:35.139Z,9.76
2024-03-06T23:18:37.894Z,9.30
2024-03-06T23:23:40.634Z,9.61
2024-03-06T23:28:44.721Z,9.13
2024-03-06T23:33:47.425Z,9.40
2024-03-06T23:38:51.258Z,9.23
2024-03-06T23:43:58.079Z,8.71
2024-03-06T23:49:01.927Z,9.27
2024-03-06T23:54:05.091Z,9.27
2024-03-06T23:59:09.313Z,9.15
